createdAt,value
2023-02-27T00:00:13.438Z,3.97
2023-02-27T00:01:53.146Z,3.97
2023-02-27T00:03:32.903Z,3.99
2023-02-27T00:05:12.661Z,3.99
2023-02-27T00:06:52.422Z,3.99
2023-02-27T00:08:32.195Z,3.96
2023-02-27T00:10:11.964Z,3.99
2023-02-27T00:11:51.723Z,3.96
2023-02-27T00:13:31.490Z,3.98
2023-02-27T00:15:11.257Z,3.98
2023-02-27T00:16:51.030Z,3.97
2023-02-27T00:18:30.828Z,3.93
2023-02-27T00:20:10.572Z,3.93
2023-02-27T00:21:50.346Z,3.93
2023-02-27T00:23:30.146Z,3.96
2023-02-27T00:25:09.866Z,3.91
2023-02-27T00:26:49.635Z,3.95
2023-02-27T00:28:29.407Z,3.94
2023-02-27T00:30:09.162Z,3.92
2023-02-27T00:31:48.940Z,3.9
2023-02-27T00:33:28.697Z,3.9
2023-02-27T00:35:08.494Z,3.9
2023-02-27T00:36:48.250Z,3.9
2023-02-27T00:38:28.004Z,3.91
2023-02-27T00:40:07.753Z,3.9
2023-02-27T00:41:47.532Z,3.89
2023-02-27T00:43:27.296Z,3.9
2023-02-27T00:45:07.069Z,3.87
2023-02-27T00:46:46.845Z,3.9
2023-02-27T00:48:26.608Z,3.89
2023-02-27T00:50:06.363Z,3.86
2023-02-27T00:51:46.142Z,3.85
2023-02-27T00:53:25.897Z,3.84
2023-02-27T00:55:05.665Z,3.88
2023-02-27T00:56:45.445Z,3.86
2023-02-27T00:58:25.207Z,3.86
2023-02-27T01:00:04.971Z,3.85
2023-02-27T01:01:44.755Z,3.82
2023-02-27T01:03:24.508Z,3.84
2023-02-27T01:05:04.281Z,3.81
2023-02-27T01:06:44.043Z,3.78
2023-02-27T01:08:23.835Z,3.81
2023-02-27T01:10:03.586Z,3.82
2023-02-27T01:11:43.348Z,3.79
2023-02-27T01:13:23.128Z,3.8
2023-02-27T01:15:02.874Z,3.78
2023-02-27T01:16:42.653Z,3.75
2023-02-27T01:18:22.436Z,3.74
2023-02-27T01:20:02.223Z,3.78
2023-02-27T01:21:41.958Z,3.75
2023-02-27T01:23:21.713Z,3.75
2023-02-27T01:25:01.484Z,3.71
2023-02-27T01:26:41.246Z,3.71
2023-02-27T01:28:21.030Z,3.73
2023-02-27T01:30:00.793Z,3.71
2023-02-27T01:31:40.554Z,3.69
2023-02-27T01:33:20.313Z,3.71
2023-02-27T01:35:00.095Z,3.68
2023-02-27T01:36:39.857Z,3.68
2023-02-27T01:38:19.614Z,3.69
2023-02-27T01:39:59.396Z,3.69
2023-02-27T01:41:39.149Z,3.69
2023-02-27T01:43:18.929Z,3.66
2023-02-27T01:44:58.682Z,3.67
2023-02-27T01:46:38.449Z,3.65
2023-02-27T01:48:18.226Z,3.63
2023-02-27T01:49:57.995Z,3.61
2023-02-27T01:51:37.752Z,3.61
2023-02-27T01:53:17.529Z,3.61
2023-02-27T01:54:57.293Z,3.61
2023-02-27T01:56:37.070Z,3.63
2023-02-27T01:58:16.840Z,3.58
2023-02-27T01:59:56.593Z,3.6
2023-02-27T02:01:36.356Z,3.59
2023-02-27T02:03:16.129Z,3.59
2023-02-27T02:04:55.904Z,3.54
2023-02-27T02:06:35.659Z,3.57
2023-02-27T02:08:15.436Z,3.53
2023-02-27T02:09:55.198Z,3.56
2023-02-27T02:11:34.966Z,3.52
2023-02-27T02:13:14.746Z,3.52
2023-02-27T02:14:54.500Z,3.5
2023-02-27T02:16:34.266Z,3.49
2023-02-27T02:18:14.038Z,3.5
2023-02-27T02:19:53.799Z,3.49
2023-02-27T02:21:33.574Z,3.5
2023-02-27T02:23:13.332Z,3.46
2023-02-27T02:24:53.104Z,3.48
2023-02-27T02:26:32.884Z,3.46
2023-02-27T02:28:12.641Z,3.46
2023-02-27T02:29:52.402Z,3.47
2023-02-27T02:31:32.165Z,3.44
2023-02-27T02:33:11.932Z,3.44
2023-02-27T02:34:51.703Z,3.4
2023-02-27T02:36:31.481Z,3.42
2023-02-27T02:38:11.246Z,3.39
2023-02-27T02:39:51.011Z,3.38
2023-02-27T02:41:30.772Z,3.38
2023-02-27T02:43:10.548Z,3.38
2023-02-27T02:44:50.316Z,3.39
2023-02-27T02:46:30.074Z,3.38
2023-02-27T02:48:09.855Z,3.34
2023-02-27T02:49:49.605Z,3.34
2023-02-27T02:51:29.383Z,3.35
2023-02-27T02:53:09.149Z,3.33
2023-02-27T02:54:48.911Z,3.33
2023-02-27T02:56:28.688Z,3.3
2023-02-27T02:58:08.436Z,3.28
2023-02-27T02:59:48.219Z,3.32
2023-02-27T03:01:27.981Z,3.26
2023-02-27T03:03:07.744Z,3.26
2023-02-27T03:04:47.514Z,3.27
2023-02-27T03:06:27.299Z,3.24
2023-02-27T03:08:07.042Z,3.24
2023-02-27T03:09:46.832Z,3.27
2023-02-27T03:11:26.577Z,3.23
2023-02-27T03:13:06.359Z,3.25
2023-02-27T03:14:46.120Z,3.21
2023-02-27T03:16:25.895Z,3.2
2023-02-27T03:18:05.660Z,3.21
2023-02-27T03:19:45.426Z,3.2
2023-02-27T03:21:25.185Z,3.21
2023-02-27T03:23:04.965Z,3.21
2023-02-27T03:24:44.722Z,3.16
2023-02-27T03:26:24.492Z,3.19
2023-02-27T03:28:04.249Z,3.17
2023-02-27T03:29:44.026Z,3.15
2023-02-27T03:31:23.783Z,3.16
2023-02-27T03:33:03.556Z,3.17
2023-02-27T03:34:43.326Z,3.13
2023-02-27T03:36:23.105Z,3.13
2023-02-27T03:38:02.861Z,3.16
2023-02-27T03:39:42.617Z,3.12
2023-02-27T03:41:22.375Z,3.13
2023-02-27T03:43:02.154Z,3.14
2023-02-27T03:44:41.928Z,3.1
2023-02-27T03:46:21.686Z,3.08
2023-02-27T03:48:01.457Z,3.12
2023-02-27T03:49:41.221Z,3.1
2023-02-27T03:51:20.980Z,3.1
2023-02-27T03:53:00.747Z,3.1
2023-02-27T03:54:40.535Z,3.1
2023-02-27T03:56:20.291Z,3.06
2023-02-27T03:58:00.063Z,3.06
2023-02-27T03:59:39.839Z,3.07
2023-02-27T04:01:19.581Z,3.06
2023-02-27T04:02:59.357Z,3.05
2023-02-27T04:04:39.125Z,3.07
2023-02-27T04:06:18.903Z,3.06
2023-02-27T04:07:58.651Z,3.06
2023-02-27T04:09:38.427Z,3.06
2023-02-27T04:11:18.181Z,3.04
2023-02-27T04:12:57.962Z,3.03
2023-02-27T04:14:37.730Z,3.05
2023-02-27T04:16:17.485Z,3.01
2023-02-27T04:17:57.297Z,3.04
2023-02-27T04:19:37.028Z,3
2023-02-27T04:21:16.790Z,3.01
2023-02-27T04:22:56.567Z,3.03
2023-02-27T04:24:36.346Z,3.03
2023-02-27T04:26:16.092Z,2.99
2023-02-27T04:27:55.861Z,3.03
2023-02-27T04:29:35.636Z,3.02
2023-02-27T04:31:15.405Z,3
2023-02-27T04:32:55.172Z,3
2023-02-27T04:34:34.931Z,2.99
2023-02-27T04:36:14.708Z,3
2023-02-27T04:37:54.479Z,2.96
2023-02-27T04:39:34.236Z,3
2023-02-27T04:41:14.003Z,2.97
2023-02-27T04:42:53.774Z,2.96
2023-02-27T04:44:33.540Z,2.99
2023-02-27T04:46:13.299Z,2.98
2023-02-27T04:47:53.087Z,2.95
2023-02-27T04:49:32.873Z,2.97
2023-02-27T04:51:12.603Z,2.96
2023-02-27T04:52:52.379Z,2.96
2023-02-27T04:54:32.155Z,2.92
2023-02-27T04:56:11.910Z,2.91
2023-02-27T04:57:51.687Z,2.94
2023-02-27T04:59:31.466Z,2.92
2023-02-27T05:01:11.213Z,2.94
2023-02-27T05:02:50.983Z,2.92
2023-02-27T05:04:30.757Z,2.9
2023-02-27T05:06:10.571Z,2.88
2023-02-27T05:07:50.287Z,2.89
2023-02-27T05:09:30.042Z,2.9
2023-02-27T05:11:09.814Z,2.87
2023-02-27T05:12:49.578Z,2.89
2023-02-27T05:14:29.341Z,2.9
2023-02-27T05:16:09.114Z,2.86
2023-02-27T05:17:48.885Z,2.88
2023-02-27T05:19:28.657Z,2.84
2023-02-27T05:21:08.426Z,2.82
2023-02-27T05:22:48.193Z,2.86
2023-02-27T05:24:27.958Z,2.82
2023-02-27T05:26:07.727Z,2.83
2023-02-27T05:27:47.494Z,2.84
2023-02-27T05:29:27.274Z,2.8
2023-02-27T05:31:07.024Z,2.82
2023-02-27T05:32:46.786Z,2.82
2023-02-27T05:34:26.562Z,2.8
2023-02-27T05:36:06.320Z,2.79
2023-02-27T05:37:46.085Z,2.81
2023-02-27T05:39:25.861Z,2.8
2023-02-27T05:41:05.614Z,2.77
2023-02-27T05:42:45.399Z,2.8
2023-02-27T05:44:25.158Z,2.82
2023-02-27T05:46:04.932Z,2.85
2023-02-27T05:47:44.685Z,2.87
2023-02-27T05:49:24.452Z,2.89
2023-02-27T05:51:04.209Z,2.88
2023-02-27T05:52:43.980Z,2.95
2023-02-27T05:54:23.759Z,2.93
2023-02-27T05:56:03.524Z,2.94
2023-02-27T05:57:43.295Z,2.97
2023-02-27T05:59:23.061Z,2.97
2023-02-27T06:01:02.836Z,2.98
2023-02-27T06:02:42.608Z,3.02
2023-02-27T06:04:22.380Z,3
2023-02-27T06:06:02.131Z,3.07
2023-02-27T06:07:41.902Z,3.03
2023-02-27T06:09:21.678Z,3.07
2023-02-27T06:11:01.437Z,3.08
2023-02-27T06:12:41.203Z,3.09
2023-02-27T06:14:20.978Z,3.11
2023-02-27T06:16:00.747Z,3.08
2023-02-27T06:17:40.512Z,3.13
2023-02-27T06:19:20.281Z,3.1
2023-02-27T06:21:00.064Z,3.11
2023-02-27T06:22:39.816Z,3.16
2023-02-27T06:24:19.584Z,3.15
2023-02-27T06:25:59.340Z,3.14
2023-02-27T06:27:39.122Z,3.17
2023-02-27T06:29:18.874Z,3.17
2023-02-27T06:30:58.646Z,3.18
2023-02-27T06:32:38.408Z,3.18
2023-02-27T06:34:18.180Z,3.19
2023-02-27T06:35:57.968Z,3.22
2023-02-27T06:37:37.729Z,3.21
2023-02-27T06:39:17.488Z,3.26
2023-02-27T06:40:57.270Z,3.24
2023-02-27T06:42:37.031Z,3.24
2023-02-27T06:44:16.817Z,3.26
2023-02-27T06:45:56.574Z,3.25
2023-02-27T06:47:36.359Z,3.27
2023-02-27T06:49:16.109Z,3.28
2023-02-27T06:50:55.935Z,3.28
2023-02-27T06:52:35.661Z,3.32
2023-02-27T06:54:15.421Z,3.34
2023-02-27T06:55:55.190Z,3.34
2023-02-27T06:57:34.971Z,3.33
2023-02-27T06:59:14.729Z,3.33
2023-02-27T07:00:54.501Z,3.37
2023-02-27T07:02:34.277Z,3.36
2023-02-27T07:04:14.041Z,3.34
2023-02-27T07:05:53.800Z,3.35
2023-02-27T07:07:33.586Z,3.34
2023-02-27T07:09:13.374Z,3.4
2023-02-27T07:10:53.121Z,3.38
2023-02-27T07:12:32.897Z,3.38
2023-02-27T07:14:12.673Z,3.41
2023-02-27T07:15:52.436Z,3.41
2023-02-27T07:17:32.190Z,3.41
2023-02-27T07:19:11.957Z,3.41
2023-02-27T07:20:51.742Z,3.38
2023-02-27T07:22:31.525Z,3.37
2023-02-27T07:24:11.285Z,3.39
2023-02-27T07:25:51.061Z,3.42
2023-02-27T07:27:30.815Z,3.42
2023-02-27T07:29:10.594Z,3.47
2023-02-27T07:30:50.378Z,3.44
2023-02-27T07:32:30.141Z,3.45
2023-02-27T07:34:09.888Z,3.44
2023-02-27T07:35:49.666Z,3.53
2023-02-27T07:37:29.446Z,3.49
2023-02-27T07:39:09.213Z,3.55
2023-02-27T07:40:48.980Z,3.48
2023-02-27T07:42:28.752Z,3.51
2023-02-27T07:44:08.516Z,3.53
2023-02-27T07:45:48.308Z,3.52
2023-02-27T07:47:28.083Z,3.55
2023-02-27T07:49:07.833Z,3.56
2023-02-27T07:50:47.675Z,3.58
2023-02-27T07:52:27.367Z,3.6
2023-02-27T07:54:07.208Z,3.6
2023-02-27T07:55:47.008Z,3.64
2023-02-27T07:57:26.860Z,3.67
2023-02-27T07:59:06.507Z,3.73
2023-02-27T08:00:46.244Z,3.71
2023-02-27T08:02:25.999Z,3.77
2023-02-27T08:04:05.797Z,3.75
2023-02-27T08:05:45.529Z,3.79
2023-02-27T08:07:25.294Z,3.78
2023-02-27T08:09:05.067Z,3.78
2023-02-27T08:10:44.834Z,3.78
2023-02-27T08:12:24.619Z,3.74
2023-02-27T08:14:04.388Z,3.75
2023-02-27T08:15:44.217Z,3.72
2023-02-27T08:17:23.941Z,3.7
2023-02-27T08:19:03.732Z,3.72
2023-02-27T08:20:43.469Z,3.73
2023-02-27T08:22:23.233Z,3.77
2023-02-27T08:24:03.104Z,3.78
2023-02-27T08:25:42.784Z,3.81
2023-02-27T08:27:22.535Z,3.8
2023-02-27T08:29:02.340Z,3.82
2023-02-27T08:30:42.090Z,3.86
2023-02-27T08:32:21.870Z,3.91
2023-02-27T08:34:01.633Z,3.89
2023-02-27T08:35:41.395Z,3.94
2023-02-27T08:37:21.250Z,3.96
2023-02-27T08:39:00.938Z,3.99
2023-02-27T08:40:40.693Z,4.06
2023-02-27T08:42:20.474Z,4.1
2023-02-27T08:44:00.288Z,4.1
2023-02-27T08:45:40.026Z,4.16
2023-02-27T08:47:19.793Z,4.16
2023-02-27T08:48:59.544Z,4.21
2023-02-27T08:50:39.315Z,4.23
2023-02-27T08:52:19.092Z,4.27
2023-02-27T08:53:58.872Z,4.29
2023-02-27T08:55:38.640Z,4.33
2023-02-27T08:57:18.453Z,4.37
2023-02-27T08:58:58.171Z,4.41
2023-02-27T09:00:37.938Z,4.42
2023-02-27T09:02:17.726Z,4.44
2023-02-27T09:03:57.538Z,4.5
2023-02-27T09:05:37.267Z,4.48
2023-02-27T09:07:17.032Z,4.53
2023-02-27T09:08:56.788Z,4.57
2023-02-27T09:10:36.569Z,4.6
2023-02-27T09:12:16.329Z,4.61
2023-02-27T09:13:56.118Z,4.67
2023-02-27T09:15:35.867Z,4.67
2023-02-27T09:17:15.637Z,4.67
2023-02-27T09:18:55.415Z,4.73
2023-02-27T09:20:35.207Z,4.8
2023-02-27T09:22:14.955Z,4.82
2023-02-27T09:23:54.737Z,4.83
2023-02-27T09:25:34.490Z,4.84
2023-02-27T09:27:14.264Z,4.92
2023-02-27T09:28:54.057Z,4.92
2023-02-27T09:30:33.815Z,4.94
2023-02-27T09:32:13.570Z,5.01
2023-02-27T09:33:53.335Z,5.02
2023-02-27T09:35:33.248Z,5.05
2023-02-27T09:37:12.923Z,5.08
2023-02-27T09:38:52.658Z,5.15
2023-02-27T09:40:32.437Z,5.17
2023-02-27T09:42:12.192Z,5.19
2023-02-27T09:43:51.967Z,5.24
2023-02-27T09:45:31.878Z,5.31
2023-02-27T09:47:11.509Z,5.31
2023-02-27T09:48:51.276Z,5.35
2023-02-27T09:50:31.046Z,5.37
2023-02-27T09:52:10.824Z,5.41
2023-02-27T09:53:50.600Z,5.48
2023-02-27T09:55:30.356Z,5.51
2023-02-27T09:57:10.133Z,5.54
2023-02-27T09:58:49.926Z,5.58
2023-02-27T10:00:29.669Z,5.64
2023-02-27T10:02:09.441Z,5.67
2023-02-27T10:03:49.223Z,5.69
2023-02-27T10:05:28.980Z,5.73
2023-02-27T10:07:08.745Z,5.79
2023-02-27T10:08:48.633Z,5.8
2023-02-27T10:10:28.286Z,5.83
2023-02-27T10:12:08.054Z,5.84
2023-02-27T10:13:47.856Z,5.91
2023-02-27T10:15:27.600Z,5.94
2023-02-27T10:17:07.380Z,5.98
2023-02-27T10:18:47.139Z,6
2023-02-27T10:20:26.918Z,6.03
2023-02-27T10:22:06.683Z,6.1
2023-02-27T10:23:46.468Z,6.11
2023-02-27T10:25:26.223Z,6.13
2023-02-27T10:27:05.996Z,6.19
2023-02-27T10:28:45.766Z,6.22
2023-02-27T10:30:25.540Z,6.25
2023-02-27T10:32:05.302Z,6.31
2023-02-27T10:33:45.131Z,6.34
2023-02-27T10:35:24.846Z,6.35
2023-02-27T10:37:04.766Z,6.39
2023-02-27T10:38:44.379Z,6.41
2023-02-27T10:40:24.163Z,6.45
2023-02-27T10:42:03.929Z,6.5
2023-02-27T10:43:43.725Z,6.54
2023-02-27T10:45:23.463Z,6.55
2023-02-27T10:47:03.236Z,6.6
2023-02-27T10:48:43.011Z,6.61
2023-02-27T10:50:22.781Z,6.68
2023-02-27T10:52:02.649Z,6.68
2023-02-27T10:53:42.318Z,6.72
2023-02-27T10:55:22.096Z,6.76
2023-02-27T10:57:01.897Z,6.8
2023-02-27T10:58:41.636Z,6.85
2023-02-27T11:00:21.399Z,6.89
2023-02-27T11:02:01.175Z,6.9
2023-02-27T11:03:40.955Z,6.93
2023-02-27T11:05:20.755Z,6.95
2023-02-27T11:07:00.468Z,7.03
2023-02-27T11:08:40.258Z,7.04
2023-02-27T11:10:20.021Z,7.05
2023-02-27T11:11:59.801Z,7.13
2023-02-27T11:13:39.557Z,7.14
2023-02-27T11:15:19.381Z,7.18
2023-02-27T11:16:59.088Z,7.17
2023-02-27T11:18:38.880Z,7.2
2023-02-27T11:20:18.647Z,7.18
2023-02-27T11:21:58.401Z,7.15
2023-02-27T11:23:38.191Z,7.14
2023-02-27T11:25:17.944Z,7.11
2023-02-27T11:26:57.714Z,7.09
2023-02-27T11:28:37.488Z,7.08
2023-02-27T11:30:17.258Z,7.12
2023-02-27T11:31:57.037Z,7.13
2023-02-27T11:33:36.798Z,7.2
2023-02-27T11:35:16.582Z,7.15
2023-02-27T11:36:56.382Z,7.16
2023-02-27T11:38:36.118Z,7.17
2023-02-27T11:40:15.979Z,7.19
2023-02-27T11:41:55.646Z,7.23
2023-02-27T11:43:35.429Z,7.24
2023-02-27T11:45:15.232Z,7.25
2023-02-27T11:46:54.963Z,7.27
2023-02-27T11:48:34.781Z,7.25
2023-02-27T11:50:14.502Z,7.25
2023-02-27T11:51:54.319Z,7.27
2023-02-27T11:53:34.039Z,7.34
2023-02-27T11:55:13.809Z,7.32
2023-02-27T11:56:53.588Z,7.35
2023-02-27T11:58:33.354Z,7.35
2023-02-27T12:00:13.198Z,7.35
2023-02-27T12:01:52.884Z,7.35
2023-02-27T12:03:32.656Z,7.36
2023-02-27T12:05:12.437Z,7.42
2023-02-27T12:06:52.208Z,7.42
2023-02-27T12:08:32.042Z,7.46
2023-02-27T12:10:11.879Z,7.42
2023-02-27T12:11:51.525Z,7.44
2023-02-27T12:13:31.282Z,7.46
2023-02-27T12:15:11.096Z,7.51
2023-02-27T12:16:50.879Z,7.52
2023-02-27T12:18:30.599Z,7.49
2023-02-27T12:20:10.394Z,7.52
2023-02-27T12:21:50.210Z,7.52
2023-02-27T12:23:29.962Z,7.54
2023-02-27T12:25:09.685Z,7.57
2023-02-27T12:26:49.439Z,7.58
2023-02-27T12:28:29.228Z,7.57
2023-02-27T12:30:08.994Z,7.57
2023-02-27T12:31:48.780Z,7.61
2023-02-27T12:33:28.517Z,7.64
2023-02-27T12:35:08.330Z,7.61
2023-02-27T12:36:48.070Z,7.62
2023-02-27T12:38:27.881Z,7.65
2023-02-27T12:40:07.628Z,7.66
2023-02-27T12:41:47.366Z,7.67
2023-02-27T12:43:27.149Z,7.72
2023-02-27T12:45:06.914Z,7.72
2023-02-27T12:46:46.688Z,7.74
2023-02-27T12:48:26.464Z,7.73
2023-02-27T12:50:06.214Z,7.75
2023-02-27T12:51:45.981Z,7.79
2023-02-27T12:53:25.755Z,7.8
2023-02-27T12:55:05.535Z,7.8
2023-02-27T12:56:45.293Z,7.84
2023-02-27T12:58:25.082Z,7.84
2023-02-27T13:00:04.832Z,7.85
2023-02-27T13:01:44.658Z,7.82
2023-02-27T13:03:24.378Z,7.85
2023-02-27T13:05:04.147Z,7.85
2023-02-27T13:06:43.953Z,7.88
2023-02-27T13:08:23.713Z,7.89
2023-02-27T13:10:03.457Z,7.89
2023-02-27T13:11:43.231Z,7.92
2023-02-27T13:13:23.009Z,7.94
2023-02-27T13:15:02.787Z,7.94
2023-02-27T13:16:42.540Z,7.95
2023-02-27T13:18:22.313Z,7.97
2023-02-27T13:20:02.092Z,8.01
2023-02-27T13:21:41.870Z,7.99
2023-02-27T13:23:21.714Z,8.03
2023-02-27T13:25:01.391Z,8.08
2023-02-27T13:26:41.156Z,8.08
2023-02-27T13:28:20.949Z,8.09
2023-02-27T13:30:00.714Z,8.1
2023-02-27T13:31:40.499Z,8.12
2023-02-27T13:33:20.244Z,8.16
2023-02-27T13:35:00.031Z,8.21
2023-02-27T13:36:39.777Z,8.21
2023-02-27T13:38:19.561Z,8.22
2023-02-27T13:39:59.390Z,8.22
2023-02-27T13:41:39.238Z,8.26
2023-02-27T13:43:18.852Z,8.29
2023-02-27T13:44:58.644Z,8.3
2023-02-27T13:46:38.451Z,8.35
2023-02-27T13:48:18.180Z,8.35
2023-02-27T13:49:57.953Z,8.35
2023-02-27T13:51:37.759Z,8.38
2023-02-27T13:53:17.466Z,8.39
2023-02-27T13:54:57.259Z,8.42
2023-02-27T13:56:37.057Z,8.39
2023-02-27T13:58:16.781Z,8.41
2023-02-27T13:59:56.562Z,8.43
2023-02-27T14:01:36.324Z,8.42
2023-02-27T14:03:16.133Z,8.47
2023-02-27T14:04:55.932Z,8.45
2023-02-27T14:06:35.633Z,8.47
2023-02-27T14:08:15.427Z,8.49
2023-02-27T14:09:55.173Z,8.49
2023-02-27T14:11:34.951Z,8.5
2023-02-27T14:13:14.714Z,8.53
2023-02-27T14:14:54.532Z,8.49
2023-02-27T14:16:34.249Z,8.52
2023-02-27T14:18:14.089Z,8.54
2023-02-27T14:19:53.793Z,8.54
2023-02-27T14:21:33.559Z,8.54
2023-02-27T14:23:13.347Z,8.54
2023-02-27T14:24:53.107Z,8.58
2023-02-27T14:26:32.853Z,8.56
2023-02-27T14:28:12.679Z,8.57
2023-02-27T14:29:52.410Z,8.62
2023-02-27T14:31:32.176Z,8.6
2023-02-27T14:33:11.964Z,8.6
2023-02-27T14:34:51.740Z,8.6
2023-02-27T14:36:31.605Z,8.59
2023-02-27T14:38:11.266Z,8.59
2023-02-27T14:39:51.026Z,8.6
2023-02-27T14:41:30.796Z,8.59
2023-02-27T14:43:10.572Z,8.62
2023-02-27T14:44:50.342Z,8.63
2023-02-27T14:46:30.154Z,8.6
2023-02-27T14:48:09.874Z,8.6
2023-02-27T14:51:29.426Z,8.64
2023-02-27T14:53:09.224Z,8.6
2023-02-27T14:54:48.952Z,8.6
2023-02-27T14:56:28.762Z,8.62
2023-02-27T14:58:08.499Z,8.6
2023-02-27T14:59:48.279Z,8.58
2023-02-27T15:01:28.055Z,8.64
2023-02-27T15:03:07.876Z,8.62
2023-02-27T15:04:47.588Z,8.59
2023-02-27T15:06:27.372Z,8.59
2023-02-27T15:08:07.117Z,8.63
2023-02-27T15:09:46.900Z,8.63
2023-02-27T15:11:26.682Z,8.64
2023-02-27T15:13:06.475Z,8.6
2023-02-27T15:14:46.194Z,8.63
2023-02-27T15:16:25.960Z,8.62
2023-02-27T15:18:05.785Z,8.6
2023-02-27T15:19:45.509Z,8.6
2023-02-27T15:21:25.297Z,8.59
2023-02-27T15:23:05.063Z,8.6
2023-02-27T15:24:44.878Z,8.58
2023-02-27T15:26:24.613Z,8.6
2023-02-27T15:28:04.402Z,8.6
2023-02-27T15:29:44.134Z,8.63
2023-02-27T15:31:23.909Z,8.57
2023-02-27T15:33:03.675Z,8.59
2023-02-27T15:34:43.444Z,8.6
2023-02-27T15:36:23.221Z,8.58
2023-02-27T15:38:03.018Z,8.57
2023-02-27T15:39:42.744Z,8.59
2023-02-27T15:41:22.550Z,8.58
2023-02-27T15:43:02.294Z,8.56
2023-02-27T15:44:42.068Z,8.6
2023-02-27T15:46:21.842Z,8.56
2023-02-27T15:48:01.634Z,8.57
2023-02-27T15:49:41.372Z,8.56
2023-02-27T15:51:21.159Z,8.58
2023-02-27T15:53:00.910Z,8.56
2023-02-27T15:54:40.689Z,8.58
2023-02-27T15:56:20.462Z,8.57
2023-02-27T15:58:00.240Z,8.59
2023-02-27T15:59:40.002Z,8.57
2023-02-27T16:01:19.771Z,8.56
2023-02-27T16:02:59.536Z,8.57
2023-02-27T16:04:39.304Z,8.58
2023-02-27T16:06:19.069Z,8.55
2023-02-27T16:07:58.841Z,8.56
2023-02-27T16:09:38.632Z,8.54
2023-02-27T16:11:18.384Z,8.52
2023-02-27T16:12:58.156Z,8.58
2023-02-27T16:14:37.926Z,8.54
2023-02-27T16:16:17.684Z,8.55
2023-02-27T16:17:57.464Z,8.5
2023-02-27T16:19:37.224Z,8.5
2023-02-27T16:21:17.017Z,8.46
2023-02-27T16:22:56.770Z,8.43
2023-02-27T16:24:36.543Z,8.43
2023-02-27T16:26:16.302Z,8.39
2023-02-27T16:27:56.086Z,8.39
2023-02-27T16:29:35.841Z,8.39
2023-02-27T16:31:15.619Z,8.37
2023-02-27T16:32:55.391Z,8.34
2023-02-27T16:34:35.163Z,8.34
2023-02-27T16:36:14.918Z,8.3
2023-02-27T16:37:54.696Z,8.29
2023-02-27T16:39:34.469Z,8.29
2023-02-27T16:41:14.238Z,8.26
2023-02-27T16:42:54.005Z,8.27
2023-02-27T16:44:33.789Z,8.25
2023-02-27T16:46:13.538Z,8.22
2023-02-27T16:47:53.293Z,8.21
2023-02-27T16:49:33.064Z,8.22
2023-02-27T16:51:12.826Z,8.22
2023-02-27T16:52:52.601Z,8.18
2023-02-27T16:54:32.356Z,8.17
2023-02-27T16:56:12.148Z,8.18
2023-02-27T16:57:51.906Z,8.16
2023-02-27T16:59:31.698Z,8.14
2023-02-27T17:01:11.445Z,8.17
2023-02-27T17:02:51.204Z,8.1
2023-02-27T17:04:30.984Z,8.12
2023-02-27T17:06:10.738Z,8.08
2023-02-27T17:07:50.506Z,8.02
2023-02-27T17:09:30.276Z,8.01
2023-02-27T17:11:10.042Z,7.98
2023-02-27T17:12:49.823Z,7.94
2023-02-27T17:14:29.572Z,7.89
2023-02-27T17:16:09.350Z,7.87
2023-02-27T17:17:49.114Z,7.84
2023-02-27T17:19:28.878Z,7.82
2023-02-27T17:21:08.636Z,7.77
2023-02-27T17:22:48.465Z,7.75
2023-02-27T17:24:28.209Z,7.69
2023-02-27T17:26:07.950Z,7.67
2023-02-27T17:27:47.708Z,7.66
2023-02-27T17:29:27.475Z,7.62
2023-02-27T17:31:07.246Z,7.58
2023-02-27T17:32:47.026Z,7.59
2023-02-27T17:34:26.795Z,7.54
2023-02-27T17:36:06.678Z,7.53
2023-02-27T17:37:46.331Z,7.5
2023-02-27T17:39:26.087Z,7.51
2023-02-27T17:41:05.856Z,7.47
2023-02-27T17:42:45.632Z,7.44
2023-02-27T17:44:25.389Z,7.41
2023-02-27T17:46:05.154Z,7.4
2023-02-27T17:47:44.915Z,7.38
2023-02-27T17:49:24.688Z,7.36
2023-02-27T17:51:04.460Z,7.35
2023-02-27T17:52:44.229Z,7.32
2023-02-27T17:54:23.990Z,7.31
2023-02-27T17:56:03.770Z,7.29
2023-02-27T17:57:43.534Z,7.25
2023-02-27T17:59:23.329Z,7.26
2023-02-27T18:01:03.060Z,7.24
2023-02-27T18:02:42.819Z,7.23
2023-02-27T18:04:22.598Z,7.19
2023-02-27T18:06:02.355Z,7.18
2023-02-27T18:07:42.123Z,7.19
2023-02-27T18:09:21.962Z,7.13
2023-02-27T18:11:01.679Z,7.13
2023-02-27T18:12:41.428Z,7.1
2023-02-27T18:14:21.190Z,7.11
2023-02-27T18:16:00.968Z,7.07
2023-02-27T18:17:40.724Z,7.07
2023-02-27T18:19:20.506Z,7.08
2023-02-27T18:21:00.439Z,7.03
2023-02-27T18:22:40.089Z,7.01
2023-02-27T18:24:19.789Z,7.03
2023-02-27T18:25:59.561Z,7.01
2023-02-27T18:27:39.361Z,7
2023-02-27T18:29:19.135Z,6.98
2023-02-27T18:30:58.863Z,6.95
2023-02-27T18:32:38.624Z,6.94
2023-02-27T18:34:18.411Z,6.92
2023-02-27T18:35:58.177Z,6.92
2023-02-27T18:37:37.934Z,6.91
2023-02-27T18:39:17.706Z,6.91
2023-02-27T18:40:57.472Z,6.9
2023-02-27T18:42:37.266Z,6.88
2023-02-27T18:44:17.016Z,6.88
2023-02-27T18:45:56.779Z,6.87
2023-02-27T18:47:36.545Z,6.83
2023-02-27T18:49:16.322Z,6.85
2023-02-27T18:50:56.062Z,6.81
2023-02-27T18:52:35.834Z,6.82
2023-02-27T18:54:15.660Z,6.79
2023-02-27T18:55:55.375Z,6.81
2023-02-27T18:57:35.140Z,6.79
2023-02-27T18:59:14.924Z,6.78
2023-02-27T19:00:54.668Z,6.76
2023-02-27T19:02:34.504Z,6.77
2023-02-27T19:04:14.219Z,6.72
2023-02-27T19:05:53.989Z,6.72
2023-02-27T19:07:33.840Z,6.7
2023-02-27T19:09:13.574Z,6.69
2023-02-27T19:10:53.296Z,6.69
2023-02-27T19:12:33.041Z,6.69
2023-02-27T19:14:12.829Z,6.7
2023-02-27T19:15:52.576Z,6.66
2023-02-27T19:17:32.357Z,6.68
2023-02-27T19:19:12.116Z,6.66
2023-02-27T19:20:51.878Z,6.64
2023-02-27T19:22:31.719Z,6.62
2023-02-27T19:24:11.521Z,6.63
2023-02-27T19:25:51.185Z,6.62
2023-02-27T19:27:30.977Z,6.6
2023-02-27T19:29:10.718Z,6.6
2023-02-27T19:30:50.491Z,6.59
2023-02-27T19:32:30.251Z,6.57
2023-02-27T19:34:10.069Z,6.55
2023-02-27T19:35:49.782Z,6.56
2023-02-27T19:37:29.565Z,6.56
2023-02-27T19:39:09.317Z,6.56
2023-02-27T19:40:49.109Z,6.52
2023-02-27T19:42:28.859Z,6.51
2023-02-27T19:44:08.624Z,6.52
2023-02-27T19:45:48.386Z,6.51
2023-02-27T19:47:28.162Z,6.47
2023-02-27T19:49:07.941Z,6.49
2023-02-27T19:50:47.705Z,6.49
2023-02-27T19:52:27.500Z,6.48
2023-02-27T19:54:07.258Z,6.44
2023-02-27T19:55:47.026Z,6.45
2023-02-27T19:57:26.760Z,6.46
2023-02-27T19:59:06.537Z,6.42
2023-02-27T20:00:46.303Z,6.41
2023-02-27T20:02:26.060Z,6.4
2023-02-27T20:04:05.877Z,6.42
2023-02-27T20:05:45.593Z,6.41
2023-02-27T20:07:25.377Z,6.37
2023-02-27T20:09:05.135Z,6.39
2023-02-27T20:10:44.893Z,6.39
2023-02-27T20:12:24.730Z,6.37
2023-02-27T20:14:04.424Z,6.37
2023-02-27T20:15:44.239Z,6.33
2023-02-27T20:17:23.957Z,6.31
2023-02-27T20:19:03.822Z,6.33
2023-02-27T20:20:43.525Z,6.3
2023-02-27T20:22:23.262Z,6.3
2023-02-27T20:24:03.040Z,6.31
2023-02-27T20:25:42.802Z,6.28
2023-02-27T20:27:22.592Z,6.27
2023-02-27T20:29:02.372Z,6.26
2023-02-27T20:30:42.118Z,6.27
2023-02-27T20:32:21.875Z,6.28
2023-02-27T20:34:01.641Z,6.24
2023-02-27T20:35:41.446Z,6.24
2023-02-27T20:37:21.269Z,6.24
2023-02-27T20:39:00.999Z,6.22
2023-02-27T20:40:40.767Z,6.22
2023-02-27T20:42:20.499Z,6.21
2023-02-27T20:44:00.285Z,6.19
2023-02-27T20:45:40.010Z,6.17
2023-02-27T20:47:19.835Z,6.17
2023-02-27T20:48:59.534Z,6.18
2023-02-27T20:50:39.332Z,6.16
2023-02-27T20:52:19.074Z,6.13
2023-02-27T20:53:58.901Z,6.15
2023-02-27T20:55:38.644Z,6.13
2023-02-27T20:57:18.385Z,6.12
2023-02-27T20:58:58.170Z,6.12
2023-02-27T21:00:37.912Z,6.1
2023-02-27T21:02:17.685Z,6.1
2023-02-27T21:03:57.483Z,6.07
2023-02-27T21:05:37.225Z,6.06
2023-02-27T21:07:16.994Z,6.08
2023-02-27T21:08:56.754Z,6.08
2023-02-27T21:10:36.524Z,6.07
2023-02-27T21:12:16.305Z,6.03
2023-02-27T21:13:56.059Z,6.03
2023-02-27T21:15:35.819Z,6.04
2023-02-27T21:17:15.632Z,6.03
2023-02-27T21:18:55.385Z,5.99
2023-02-27T21:20:35.200Z,5.98
2023-02-27T21:22:14.889Z,5.99
2023-02-27T21:23:54.659Z,6
2023-02-27T21:25:34.435Z,5.99
2023-02-27T21:27:14.186Z,5.98
2023-02-27T21:28:53.963Z,5.97
2023-02-27T21:30:33.736Z,5.95
2023-02-27T21:32:13.519Z,5.96
2023-02-27T21:33:53.274Z,5.91
2023-02-27T21:35:33.034Z,5.93
2023-02-27T21:37:12.898Z,5.92
2023-02-27T21:38:52.561Z,5.89
2023-02-27T21:40:32.330Z,5.9
2023-02-27T21:42:12.092Z,5.89
2023-02-27T21:43:51.854Z,5.86
2023-02-27T21:45:31.630Z,5.89
2023-02-27T21:47:11.406Z,5.86
2023-02-27T21:48:51.169Z,5.87
2023-02-27T21:50:30.945Z,5.85
2023-02-27T21:52:10.722Z,5.83
2023-02-27T21:53:50.497Z,5.81
2023-02-27T21:55:30.243Z,5.83
2023-02-27T21:57:09.997Z,5.82
2023-02-27T21:58:49.764Z,5.82
2023-02-27T22:00:29.552Z,5.82
2023-02-27T22:02:09.389Z,5.79
2023-02-27T22:03:49.077Z,5.78
2023-02-27T22:05:28.840Z,5.77
2023-02-27T22:07:08.602Z,5.76
2023-02-27T22:08:48.383Z,5.75
2023-02-27T22:10:28.136Z,5.75
2023-02-27T22:12:07.930Z,5.73
2023-02-27T22:13:47.688Z,5.76
2023-02-27T22:15:27.550Z,5.75